Time;durP1;ratioP1;P1;durP2;ratioP2;P2;SDS_P1;SDS_P2;PMS_P1;PMS_P2;Temp;Humidity;BMP_temperature;BMP_pressure;BME280_temperature;BME280_humidity;BME280_pressure;Samples;Min_cycle;Max_cycle;Signal;HPM_P1;HPM_P2
2024/01/29 00:01:18;;;;;;;2.20;1.15;;;7.40;99.90;;;;;;4981970;23;20184;-93
2024/01/29 00:03:19;;;;;;;1.53;1.00;;;7.40;99.90;;;;;;4980886;23;20511;-90
2024/01/29 00:05:20;;;;;;;5.43;1.10;;;7.30;99.90;;;;;;4955668;23;20211;-87
2024/01/29 00:07:21;;;;;;;8.05;1.50;;;7.40;99.90;;;;;;5006569;23;20183;-90
2024/01/29 00:09:23;;;;;;;2.43;1.37;;;7.40;99.90;;;;;;4978006;23;20152;-88
2024/01/29 00:11:24;;;;;;;1.70;1.10;;;7.30;99.90;;;;;;5002928;23;20230;-94
2024/01/29 00:13:25;;;;;;;2.77;1.17;;;7.30;99.90;;;;;;4980148;23;20153;-88
2024/01/29 00:15:26;;;;;;;3.37;1.67;;;7.30;99.90;;;;;;4980786;23;20189;-94
2024/01/29 00:17:27;;;;;;;1.97;0.97;;;7.40;99.90;;;;;;4979111;23;20184;-93
2024/01/29 00:19:29;;;;;;;3.57;1.20;;;7.40;99.90;;;;;;4978832;23;20256;-89
2024/01/29 00:21:30;;;;;;;3.57;1.13;;;7.50;99.90;;;;;;4955842;23;20198;-94
2024/01/29 00:23:31;;;;;;;3.20;1.23;;;7.60;99.90;;;;;;4954248;24;20160;-95
2024/01/29 00:25:32;;;;;;;1.20;0.70;;;7.50;99.90;;;;;;4980754;23;20152;-95
2024/01/29 00:27:33;;;;;;;3.10;1.17;;;7.50;99.90;;;;;;4979666;23;20176;-96
2024/01/29 00:29:34;;;;;;;3.60;1.53;;;7.50;99.90;;;;;;4957707;24;20153;-89
2024/01/29 00:31:35;;;;;;;10.07;1.20;;;7.40;99.90;;;;;;4955182;24;20161;-88
2024/01/29 00:33:37;;;;;;;6.53;1.37;;;7.40;99.90;;;;;;4955951;24;20153;-88
2024/01/29 00:35:38;;;;;;;2.67;1.40;;;7.40;99.90;;;;;;4955720;23;20189;-89
2024/01/29 00:37:38;;;;;;;4.73;1.23;;;7.40;99.90;;;;;;4955584;24;20168;-88
2024/01/29 00:39:39;;;;;;;8.03;1.40;;;7.50;99.90;;;;;;5001216;23;20191;-95
2024/01/29 00:41:40;;;;;;;2.43;1.17;;;7.50;99.90;;;;;;4978574;23;20156;-96
2024/01/29 00:43:41;;;;;;;3.10;1.30;;;7.50;99.90;;;;;;4978045;23;20164;-87
2024/01/29 00:45:41;;;;;;;2.47;1.20;;;7.50;99.90;;;;;;4998317;23;20160;-88
2024/01/29 00:47:42;;;;;;;3.00;1.57;;;7.60;99.90;;;;;;4979430;23;20195;-95
2024/01/29 00:49:43;;;;;;;2.47;1.30;;;7.50;99.90;;;;;;4979923;23;20609;-88
2024/01/29 00:51:44;;;;;;;3.47;1.00;;;7.50;99.90;;;;;;4979955;23;20172;-95
2024/01/29 00:53:45;;;;;;;4.43;1.33;;;7.60;99.90;;;;;;5003024;23;20152;-95
2024/01/29 00:55:46;;;;;;;3.10;1.17;;;7.60;99.90;;;;;;4978593;23;20169;-92
2024/01/29 00:57:47;;;;;;;4.37;1.17;;;7.50;99.90;;;;;;5001898;23;20171;-88
2024/01/29 00:59:47;;;;;;;1.73;0.80;;;7.60;99.90;;;;;;4983176;23;20279;-94
2024/01/29 01:01:49;;;;;;;2.57;1.33;;;7.50;99.90;;;;;;4982794;23;20236;-92
2024/01/29 01:03:50;;;;;;;1.73;1.13;;;7.50;99.90;;;;;;5002829;23;20164;-96
2024/01/29 01:05:51;;;;;;;4.27;1.30;;;7.50;99.90;;;;;;5002183;23;20155;-88
2024/01/29 01:07:52;;;;;;;3.67;1.40;;;7.40;99.90;;;;;;4980741;23;20152;-88
2024/01/29 01:09:53;;;;;;;5.93;1.77;;;7.30;99.90;;;;;;4982080;23;20163;-88
2024/01/29 01:11:54;;;;;;;3.40;1.33;;;7.30;99.90;;;;;;4981988;23;20160;-92
2024/01/29 01:13:55;;;;;;;2.40;1.20;;;7.30;99.90;;;;;;5005679;23;20155;-89
2024/01/29 01:15:56;;;;;;;4.07;1.70;;;7.20;99.90;;;;;;4983983;23;20158;-90
2024/01/29 01:17:57;;;;;;;3.73;1.27;;;7.10;99.90;;;;;;4985010;23;20180;-94
2024/01/29 01:19:57;;;;;;;9.50;2.30;;;7.10;99.90;;;;;;4984672;23;20272;-92
2024/01/29 01:21:58;;;;;;;7.17;1.60;;;7.10;99.90;;;;;;5008226;23;20196;-87
2024/01/29 01:23:59;;;;;;;4.70;1.40;;;7.10;99.90;;;;;;5009031;23;20188;-87
2024/01/29 01:26:00;;;;;;;5.07;1.90;;;7.10;99.90;;;;;;4985906;23;20159;-91
2024/01/29 01:28:00;;;;;;;4.97;1.90;;;7.20;99.90;;;;;;5006940;23;20208;-95
2024/01/29 01:30:01;;;;;;;4.93;1.93;;;7.20;99.90;;;;;;5005848;23;20460;-89
2024/01/29 01:32:02;;;;;;;4.03;1.60;;;7.30;99.90;;;;;;4981887;23;20683;-95
2024/01/29 01:34:03;;;;;;;4.33;1.67;;;7.40;99.90;;;;;;5003216;23;20175;-92
2024/01/29 01:36:04;;;;;;;3.17;1.20;;;7.50;99.90;;;;;;5003014;23;20614;-88
2024/01/29 01:38:05;;;;;;;3.87;1.93;;;7.50;99.90;;;;;;4981748;23;20156;-90
2024/01/29 01:40:06;;;;;;;4.57;1.47;;;7.40;99.90;;;;;;5006884;23;20246;-90
2024/01/29 01:42:08;;;;;;;3.47;1.43;;;7.40;99.90;;;;;;4980354;23;20185;-94
2024/01/29 01:44:08;;;;;;;7.63;1.80;;;7.30;99.90;;;;;;5002866;23;20223;-88
2024/01/29 01:46:29;;;;;;;8.27;2.10;;;7.40;99.90;;;;;;5004005;23;20163;-88
2024/01/29 01:48:37;;;;;;;4.70;1.73;;;7.30;99.90;;;;;;5003572;23;20163;-94
2024/01/29 01:50:38;;;;;;;3.07;1.63;;;7.30;99.90;;;;;;4980848;23;20148;-96
2024/01/29 01:52:40;;;;;;;5.70;1.88;;;7.30;99.90;;;;;;5006850;23;20238;-92
2024/01/29 01:54:41;;;;;;;1.97;1.23;;;7.30;99.90;;;;;;4983197;23;20152;-93
2024/01/29 01:56:42;;;;;;;3.43;1.33;;;7.20;99.90;;;;;;4979532;23;20176;-90
2024/01/29 01:58:45;;;;;;;4.30;1.47;;;7.20;99.90;;;;;;5006404;23;20184;-95
2024/01/29 02:00:46;;;;;;;2.57;1.37;;;7.20;99.90;;;;;;4983769;23;20163;-96
2024/01/29 02:02:47;;;;;;;4.87;1.20;;;7.20;99.90;;;;;;5006753;23;20226;-92
2024/01/29 02:04:48;;;;;;;3.63;1.43;;;7.20;99.90;;;;;;5004225;23;20235;-87
2024/01/29 02:06:51;;;;;;;2.37;1.27;;;7.10;99.90;;;;;;5004161;23;20254;-89
2024/01/29 02:08:53;;;;;;;4.10;1.30;;;7.20;99.90;;;;;;5006063;23;20164;-93
2024/01/29 02:10:54;;;;;;;4.47;1.20;;;7.10;99.90;;;;;;4979703;23;20174;-88
2024/01/29 02:12:55;;;;;;;2.93;1.03;;;7.20;99.90;;;;;;5005149;23;20201;-88
2024/01/29 02:14:56;;;;;;;6.67;1.47;;;7.20;99.90;;;;;;4982675;23;20149;-88
2024/01/29 02:16:57;;;;;;;3.37;0.90;;;7.30;99.90;;;;;;5005695;23;20219;-96
2024/01/29 02:18:57;;;;;;;3.63;1.30;;;7.30;99.90;;;;;;5002661;23;20243;-89
2024/01/29 02:20:58;;;;;;;3.30;1.10;;;7.40;99.90;;;;;;5008255;23;20159;-90
2024/01/29 02:22:59;;;;;;;4.67;1.73;;;7.40;99.90;;;;;;4979739;23;20238;-95
2024/01/29 02:25:00;;;;;;;2.50;1.17;;;7.30;99.90;;;;;;5004197;23;20520;-95
2024/01/29 02:27:01;;;;;;;3.00;1.10;;;7.30;99.90;;;;;;5005295;23;20207;-95
2024/01/29 02:29:02;;;;;;;2.70;1.30;;;7.30;99.90;;;;;;4980465;23;20163;-96
2024/01/29 02:31:03;;;;;;;3.40;1.23;;;7.30;99.90;;;;;;4979694;23;20152;-95
2024/01/29 02:33:05;;;;;;;3.20;1.27;;;7.30;99.90;;;;;;4979048;23;20148;-94
2024/01/29 02:35:06;;;;;;;4.47;0.97;;;7.30;99.90;;;;;;5006678;23;20156;-94
2024/01/29 02:37:07;;;;;;;3.17;1.20;;;7.20;99.90;;;;;;5025979;23;20235;-93
2024/01/29 02:39:08;;;;;;;2.37;1.23;;;7.20;99.90;;;;;;4979229;23;20200;-88
2024/01/29 02:41:09;;;;;;;2.73;1.30;;;7.20;99.90;;;;;;4980305;23;20152;-93
2024/01/29 02:43:10;;;;;;;3.47;1.43;;;7.30;99.90;;;;;;5002901;23;20156;-94
2024/01/29 02:45:11;;;;;;;1.90;1.10;;;7.30;99.90;;;;;;5003767;23;20164;-96
2024/01/29 02:47:12;;;;;;;4.07;1.50;;;7.30;99.90;;;;;;4980925;23;20179;-96
2024/01/29 02:49:13;;;;;;;3.03;1.30;;;7.30;99.90;;;;;;5005722;23;20673;-95
2024/01/29 02:51:13;;;;;;;6.63;1.33;;;7.20;99.90;;;;;;4981771;23;20156;-91
2024/01/29 02:53:14;;;;;;;3.80;1.10;;;7.10;99.90;;;;;;5032330;23;20151;-94
2024/01/29 02:55:15;;;;;;;3.17;1.43;;;7.10;99.90;;;;;;4983058;23;20503;-89
2024/01/29 02:57:16;;;;;;;5.60;2.03;;;7.10;99.90;;;;;;4983842;23;20183;-95
2024/01/29 02:59:18;;;;;;;4.20;1.20;;;7.10;99.90;;;;;;5034198;23;20191;-95
2024/01/29 03:01:19;;;;;;;4.13;1.60;;;7.00;99.90;;;;;;5009053;23;20151;-88
2024/01/29 03:03:20;;;;;;;7.30;1.42;;;7.00;99.90;;;;;;5012346;23;20203;-96
2024/01/29 03:05:21;;;;;;;2.70;1.50;;;7.00;99.90;;;;;;5009747;23;20156;-96
2024/01/29 03:07:22;;;;;;;5.13;2.20;;;7.00;99.90;;;;;;4983303;23;20204;-89
2024/01/29 03:09:22;;;;;;;4.33;1.33;;;7.00;99.90;;;;;;4987169;23;20160;-88
2024/01/29 03:11:23;;;;;;;2.63;1.40;;;7.10;99.90;;;;;;5010640;23;20159;-92
2024/01/29 03:13:24;;;;;;;3.40;1.63;;;7.10;99.90;;;;;;4987413;23;20243;-91
2024/01/29 03:15:25;;;;;;;2.83;1.33;;;7.10;99.90;;;;;;4985039;23;20215;-92
2024/01/29 03:17:25;;;;;;;4.67;1.60;;;7.10;99.90;;;;;;4987822;23;20184;-95
2024/01/29 03:19:26;;;;;;;4.30;1.83;;;7.10;99.90;;;;;;4986183;23;20184;-88
2024/01/29 03:21:27;;;;;;;1.93;1.33;;;7.10;99.90;;;;;;5004494;23;20163;-95
2024/01/29 03:23:28;;;;;;;5.10;1.87;;;7.10;99.90;;;;;;4985980;23;20177;-94
2024/01/29 03:25:30;;;;;;;4.20;1.60;;;7.10;99.90;;;;;;5034163;23;20159;-91
2024/01/29 03:27:31;;;;;;;4.57;1.50;;;7.00;99.90;;;;;;4986789;23;20168;-94
2024/01/29 03:29:32;;;;;;;3.30;1.87;;;7.00;99.90;;;;;;4981639;23;20615;-88
2024/01/29 03:31:33;;;;;;;3.40;1.30;;;7.00;99.90;;;;;;4984327;23;20177;-92
2024/01/29 03:33:34;;;;;;;4.00;1.53;;;6.90;99.90;;;;;;5009976;23;20163;-95
2024/01/29 03:35:35;;;;;;;4.23;1.63;;;6.90;99.90;;;;;;4988553;23;20163;-93
2024/01/29 03:37:35;;;;;;;3.53;1.53;;;6.90;99.90;;;;;;4986681;23;20176;-88
2024/01/29 03:39:38;;;;;;;3.27;1.40;;;6.90;99.90;;;;;;4986408;23;20188;-89
2024/01/29 03:41:39;;;;;;;3.17;1.60;;;6.90;99.90;;;;;;4980055;23;20161;-95
2024/01/29 03:43:40;;;;;;;4.10;1.80;;;7.00;99.90;;;;;;4982715;23;20157;-90
2024/01/29 03:45:43;;;;;;;5.50;1.88;;;7.00;99.90;;;;;;5002786;23;20178;-94
2024/01/29 03:47:43;;;;;;;6.40;1.53;;;6.90;99.90;;;;;;4979868;23;20180;-91
2024/01/29 03:49:45;;;;;;;5.77;1.70;;;6.90;99.90;;;;;;5003662;23;20236;-95
2024/01/29 03:51:46;;;;;;;3.10;1.57;;;6.90;99.90;;;;;;4982852;23;20545;-94
2024/01/29 03:53:47;;;;;;;2.70;1.17;;;6.80;99.90;;;;;;5004083;23;20155;-95
2024/01/29 03:55:47;;;;;;;3.07;1.47;;;6.70;99.90;;;;;;5004744;23;20617;-96
2024/01/29 03:57:48;;;;;;;7.37;1.93;;;6.70;99.90;;;;;;5006426;23;20671;-95
2024/01/29 03:59:49;;;;;;;2.77;1.30;;;6.70;99.90;;;;;;5007956;23;20254;-95
2024/01/29 04:01:50;;;;;;;2.43;1.30;;;6.70;99.90;;;;;;4983982;23;20588;-95
2024/01/29 04:03:51;;;;;;;4.87;1.80;;;6.60;99.90;;;;;;4981145;23;20248;-96
2024/01/29 04:05:53;;;;;;;3.87;1.67;;;6.60;99.90;;;;;;4984623;23;20212;-94
2024/01/29 04:07:54;;;;;;;3.10;1.33;;;6.60;99.90;;;;;;4981925;23;20162;-93
2024/01/29 04:09:54;;;;;;;4.75;1.52;;;6.80;99.90;;;;;;5003729;23;20163;-93
2024/01/29 04:11:55;;;;;;;9.03;2.37;;;6.90;99.90;;;;;;5006185;23;20159;-94
2024/01/29 04:13:56;;;;;;;5.53;1.53;;;6.80;99.90;;;;;;5006628;23;20159;-95
2024/01/29 04:15:57;;;;;;;3.70;1.20;;;6.70;99.90;;;;;;5031445;23;20202;-93
2024/01/29 04:17:59;;;;;;;5.43;1.60;;;6.70;99.90;;;;;;4980410;23;20156;-92
2024/01/29 04:20:02;;;;;;;4.70;1.83;;;6.70;99.90;;;;;;4978496;23;20715;-93
2024/01/29 04:22:03;;;;;;;3.77;1.50;;;6.70;99.90;;;;;;4978754;23;20163;-96
2024/01/29 04:24:04;;;;;;;2.13;1.30;;;6.60;99.90;;;;;;5028116;23;20151;-92
2024/01/29 04:26:05;;;;;;;8.43;2.30;;;6.50;99.90;;;;;;5002794;23;20231;-96
2024/01/29 04:28:06;;;;;;;2.70;1.90;;;6.50;99.90;;;;;;4982015;23;20160;-94
2024/01/29 04:30:07;;;;;;;11.83;2.00;;;6.50;99.90;;;;;;4983668;23;20164;-96
2024/01/29 04:32:08;;;;;;;3.23;1.50;;;6.50;99.90;;;;;;5005225;23;20183;-90
2024/01/29 04:34:09;;;;;;;4.23;1.70;;;6.40;99.90;;;;;;4982547;23;20164;-89
2024/01/29 04:36:16;;;;;;;3.30;1.37;;;6.40;99.90;;;;;;4978357;23;20155;-94
2024/01/29 04:38:17;;;;;;;2.60;1.70;;;6.40;99.90;;;;;;4979903;23;20223;-93
2024/01/29 04:40:17;;;;;;;3.60;1.23;;;6.40;99.90;;;;;;4978950;23;20196;-91
2024/01/29 04:42:18;;;;;;;3.67;1.53;;;6.40;99.90;;;;;;5003586;23;20619;-95
2024/01/29 04:44:19;;;;;;;4.70;1.90;;;6.30;99.90;;;;;;4979357;23;20163;-93
2024/01/29 04:46:20;;;;;;;4.67;1.83;;;6.30;99.90;;;;;;4980570;23;20172;-90
2024/01/29 04:48:21;;;;;;;4.60;1.50;;;6.30;99.90;;;;;;4979200;23;20164;-96
2024/01/29 04:50:22;;;;;;;1.90;1.10;;;6.30;99.90;;;;;;4981265;23;20687;-96
2024/01/29 04:52:23;;;;;;;2.47;1.37;;;6.30;99.90;;;;;;5005115;23;20158;-94
2024/01/29 04:54:24;;;;;;;8.00;1.90;;;6.40;99.90;;;;;;5006168;23;20250;-94
2024/01/29 04:56:25;;;;;;;3.00;1.47;;;6.50;99.90;;;;;;5006635;23;20175;-92
2024/01/29 04:58:26;;;;;;;7.03;2.03;;;6.90;99.90;;;;;;5004012;23;20215;-88
2024/01/29 05:00:26;;;;;;;4.13;1.60;;;6.90;99.90;;;;;;4979300;23;20172;-88
2024/01/29 05:02:27;;;;;;;2.13;0.90;;;6.80;99.90;;;;;;4982523;23;20549;-88
2024/01/29 05:04:28;;;;;;;4.00;1.50;;;6.70;99.90;;;;;;4981071;23;20156;-91
2024/01/29 05:06:29;;;;;;;3.07;1.33;;;6.60;99.90;;;;;;5004434;23;20203;-88
2024/01/29 05:08:29;;;;;;;4.03;1.70;;;6.50;99.90;;;;;;4982360;23;20481;-92
2024/01/29 05:10:30;;;;;;;2.67;1.23;;;6.40;99.90;;;;;;5003492;23;20163;-96
2024/01/29 05:12:31;;;;;;;2.77;1.60;;;6.30;99.90;;;;;;5003474;23;20585;-95
2024/01/29 05:14:32;;;;;;;4.93;1.30;;;6.40;99.90;;;;;;5001652;23;20238;-89
2024/01/29 05:16:34;;;;;;;4.17;1.97;;;6.40;99.90;;;;;;4983440;23;20172;-88
2024/01/29 05:18:35;;;;;;;3.07;1.73;;;6.30;99.90;;;;;;4983223;23;20161;-94
2024/01/29 05:20:35;;;;;;;3.70;1.50;;;6.30;99.90;;;;;;4981148;23;20189;-91
2024/01/29 05:22:36;;;;;;;5.27;1.87;;;6.30;99.90;;;;;;5002966;23;20156;-94
2024/01/29 05:24:38;;;;;;;2.90;1.40;;;6.30;99.90;;;;;;4981384;23;20156;-93
2024/01/29 05:26:39;;;;;;;4.07;1.87;;;6.20;99.90;;;;;;5002630;23;20180;-94
2024/01/29 05:28:39;;;;;;;2.13;1.10;;;6.10;99.90;;;;;;5002732;23;20159;-95
2024/01/29 05:30:40;;;;;;;3.13;1.43;;;6.00;99.90;;;;;;4979465;23;20156;-95
2024/01/29 05:32:41;;;;;;;11.03;2.80;;;5.90;99.90;;;;;;5002437;23;20152;-96
2024/01/29 05:34:42;;;;;;;3.17;1.47;;;6.00;99.90;;;;;;4979567;23;20156;-95
2024/01/29 05:36:43;;;;;;;4.33;1.67;;;5.90;99.90;;;;;;4978750;23;20191;-88
2024/01/29 05:38:44;;;;;;;3.83;1.50;;;5.90;99.90;;;;;;4979337;23;20167;-88
2024/01/29 05:40:44;;;;;;;7.63;2.87;;;5.90;99.90;;;;;;4980506;23;20164;-96
2024/01/29 05:42:52;;;;;;;3.93;1.60;;;5.90;99.90;;;;;;4979036;23;20232;-95
2024/01/29 05:44:52;;;;;;;2.90;1.20;;;6.00;99.90;;;;;;4980184;23;20175;-95
2024/01/29 05:46:53;;;;;;;2.33;1.00;;;6.00;99.90;;;;;;5003554;23;20179;-91
2024/01/29 05:48:54;;;;;;;3.60;1.03;;;6.00;99.90;;;;;;4980269;23;20172;-87
2024/01/29 05:50:56;;;;;;;1.83;1.10;;;5.90;99.90;;;;;;5006876;23;20199;-88
2024/01/29 05:52:57;;;;;;;2.70;1.33;;;5.90;99.90;;;;;;4978261;23;20247;-95
2024/01/29 05:54:58;;;;;;;3.80;1.20;;;5.90;99.90;;;;;;5000534;23;20587;-87
2024/01/29 05:57:00;;;;;;;3.47;1.30;;;5.90;99.90;;;;;;4978178;23;20199;-94
2024/01/29 05:59:01;;;;;;;1.40;0.97;;;5.80;99.90;;;;;;4977037;23;20196;-94
2024/01/29 06:01:02;;;;;;;3.50;1.67;;;5.80;99.90;;;;;;4977100;23;20155;-87
2024/01/29 06:03:03;;;;;;;2.23;1.13;;;5.70;99.90;;;;;;4978769;23;20192;-96
2024/01/29 06:05:04;;;;;;;1.93;1.00;;;5.80;99.90;;;;;;5000651;23;20148;-91
2024/01/29 06:07:05;;;;;;;3.57;1.67;;;5.90;99.90;;;;;;5009659;23;20167;-95
2024/01/29 06:09:24;;;;;;;1.97;1.00;;;5.90;99.90;;;;;;5032134;23;20187;-92
2024/01/29 06:11:25;;;;;;;2.57;1.20;;;5.90;99.90;;;;;;5008199;23;20156;-93
2024/01/29 06:13:27;;;;;;;3.77;1.50;;;5.90;99.90;;;;;;4983501;23;20153;-94
2024/01/29 06:15:30;;;;;;;4.20;1.40;;;5.80;99.90;;;;;;5011477;23;20164;-92
2024/01/29 06:17:32;;;;;;;2.83;1.30;;;5.80;99.90;;;;;;5007692;23;20627;-95
2024/01/29 06:19:35;;;;;;;5.73;2.37;;;5.80;99.90;;;;;;5006639;23;20255;-92
2024/01/29 06:21:36;;;;;;;4.50;2.07;;;5.90;99.90;;;;;;4988442;23;20492;-93
2024/01/29 06:23:37;;;;;;;3.90;2.03;;;6.00;99.90;;;;;;4984995;23;20173;-92
2024/01/29 06:25:38;;;;;;;4.03;1.37;;;6.00;99.90;;;;;;4985466;23;20156;-92
2024/01/29 06:27:40;;;;;;;6.03;2.00;;;6.00;99.90;;;;;;5010801;23;20184;-92
2024/01/29 06:29:41;;;;;;;2.50;1.30;;;5.90;99.90;;;;;;5009293;23;20216;-92
2024/01/29 06:31:46;;;;;;;3.27;1.60;;;6.00;99.90;;;;;;4985046;23;20616;-93
2024/01/29 06:33:47;;;;;;;4.17;2.07;;;6.00;99.90;;;;;;5007471;23;20156;-93
2024/01/29 06:35:48;;;;;;;2.37;1.80;;;6.00;99.90;;;;;;5008207;23;20739;-94
2024/01/29 06:37:52;;;;;;;2.93;1.30;;;5.90;99.90;;;;;;5007468;23;20176;-94
2024/01/29 06:39:53;;;;;;;6.70;1.57;;;5.80;99.90;;;;;;4983985;23;20204;-94
2024/01/29 06:41:54;;;;;;;6.90;2.07;;;5.80;99.90;;;;;;4987658;23;20276;-91
2024/01/29 06:43:55;;;;;;;4.27;1.97;;;5.80;99.90;;;;;;5020636;23;20156;-94
2024/01/29 06:45:56;;;;;;;1.60;1.10;;;5.90;99.90;;;;;;4997050;23;20168;-91
2024/01/29 06:47:58;;;;;;;3.70;1.40;;;5.90;99.90;;;;;;4996250;23;20155;-92
2024/01/29 06:49:59;;;;;;;4.90;2.07;;;5.90;99.90;;;;;;4997269;23;20142;-92
2024/01/29 06:52:00;;;;;;;4.50;1.33;;;5.90;99.90;;;;;;4997425;23;20148;-94
2024/01/29 06:54:03;;;;;;;8.07;2.33;;;5.80;99.90;;;;;;5020944;23;20140;-93
2024/01/29 06:56:06;;;;;;;3.63;1.73;;;5.70;99.90;;;;;;5020741;23;20143;-92
2024/01/29 06:58:07;;;;;;;5.30;1.87;;;5.60;99.90;;;;;;4997253;23;20140;-93
2024/01/29 07:00:08;;;;;;;4.47;1.80;;;5.60;99.90;;;;;;5020672;23;20179;-93
2024/01/29 07:02:09;;;;;;;3.17;1.50;;;5.50;99.90;;;;;;4996880;23;20152;-93
2024/01/29 07:04:12;;;;;;;2.70;1.57;;;5.60;99.90;;;;;;4997088;23;20259;-91
2024/01/29 07:06:13;;;;;;;5.47;1.93;;;5.60;99.90;;;;;;5020692;23;20223;-93
2024/01/29 07:08:15;;;;;;;3.97;1.67;;;5.60;99.90;;;;;;4997469;23;20147;-94
2024/01/29 07:10:18;;;;;;;3.57;1.60;;;5.60;99.90;;;;;;4997239;23;20203;-93
2024/01/29 07:12:19;;;;;;;2.77;1.53;;;5.60;99.90;;;;;;5020203;23;20143;-92
2024/01/29 07:14:21;;;;;;;2.37;1.00;;;5.70;99.90;;;;;;5020600;23;20176;-94
2024/01/29 07:16:22;;;;;;;1.40;1.03;;;5.70;99.90;;;;;;5019475;23;20183;-91
2024/01/29 07:18:23;;;;;;;2.43;1.40;;;5.70;99.90;;;;;;5036899;23;20155;-93
2024/01/29 07:20:27;;;;;;;2.83;1.77;;;5.70;99.90;;;;;;5004447;23;20409;-93
2024/01/29 07:22:36;;;;;;;1.97;1.13;;;5.70;99.90;;;;;;5009898;23;20136;-94
2024/01/29 07:24:38;;;;;;;2.70;1.43;;;5.80;99.90;;;;;;5006178;23;20246;-93
2024/01/29 07:26:40;;;;;;;4.57;1.90;;;5.70;99.90;;;;;;4982486;23;20615;-93
2024/01/29 07:28:44;;;;;;;5.90;1.83;;;5.80;99.90;;;;;;4983760;23;20216;-93
2024/01/29 07:30:45;;;;;;;1.80;1.23;;;5.80;99.90;;;;;;5010580;23;20155;-94
2024/01/29 07:32:46;;;;;;;2.87;1.63;;;5.90;99.90;;;;;;5010152;23;20195;-93
2024/01/29 07:34:46;;;;;;;3.33;1.33;;;5.90;99.90;;;;;;5007912;23;20155;-95
2024/01/29 07:36:47;;;;;;;3.03;1.30;;;5.90;99.90;;;;;;5007248;23;20183;-93
2024/01/29 07:38:51;;;;;;;5.90;2.57;;;5.90;99.90;;;;;;5010543;23;20159;-92
2024/01/29 07:40:55;;;;;;;6.63;2.47;;;6.00;99.90;;;;;;5003239;23;20194;-94
2024/01/29 07:42:56;;;;;;;5.93;3.27;;;6.10;99.90;;;;;;4986092;23;20158;-92
2024/01/29 07:44:57;;;;;;;2.93;1.80;;;6.20;99.90;;;;;;5012679;23;20167;-92
2024/01/29 07:46:57;;;;;;;6.10;2.40;;;6.30;99.90;;;;;;4981650;23;20168;-93
2024/01/29 07:49:03;;;;;;;5.07;2.87;;;6.40;99.90;;;;;;4992744;23;20231;-92
2024/01/29 07:51:04;;;;;;;5.77;1.93;;;6.60;99.90;;;;;;5031608;23;20653;-92
2024/01/29 07:53:06;;;;;;;2.37;1.60;;;6.50;99.90;;;;;;5030982;23;20155;-95
2024/01/29 07:55:07;;;;;;;5.23;2.10;;;6.30;99.90;;;;;;5007210;23;20599;-93
2024/01/29 07:57:08;;;;;;;5.73;2.03;;;6.30;99.90;;;;;;5005127;23;20614;-93
2024/01/29 07:59:09;;;;;;;4.03;1.97;;;6.30;99.90;;;;;;4979675;23;20220;-92
2024/01/29 08:01:11;;;;;;;3.33;1.67;;;6.40;99.90;;;;;;4983930;23;20168;-92
2024/01/29 08:03:12;;;;;;;8.50;1.80;;;6.50;99.90;;;;;;4986708;23;20160;-93
2024/01/29 08:05:13;;;;;;;3.73;1.80;;;6.50;99.90;;;;;;4984311;23;20484;-93
2024/01/29 08:07:14;;;;;;;4.50;1.67;;;6.50;99.90;;;;;;4981995;23;20203;-93
2024/01/29 08:09:15;;;;;;;4.23;2.10;;;6.50;99.90;;;;;;4983971;23;20168;-93
2024/01/29 08:11:16;;;;;;;5.03;2.00;;;6.50;99.90;;;;;;5007233;23;20151;-94
2024/01/29 08:13:21;;;;;;;3.70;1.87;;;6.60;99.90;;;;;;5008682;23;20666;-94
2024/01/29 08:15:28;;;;;;;3.03;1.33;;;6.70;99.90;;;;;;4983700;23;20148;-92
2024/01/29 08:17:31;;;;;;;4.13;2.03;;;6.70;99.90;;;;;;5006557;23;20186;-93
2024/01/29 08:19:32;;;;;;;3.10;1.67;;;6.80;99.90;;;;;;4983807;23;20180;-93
2024/01/29 08:21:33;;;;;;;3.83;2.07;;;6.80;99.90;;;;;;5009301;23;20228;-93
2024/01/29 08:23:34;;;;;;;4.17;2.10;;;6.90;99.90;;;;;;5006066;23;20164;-94
2024/01/29 08:25:35;;;;;;;8.97;1.90;;;7.00;99.90;;;;;;5007197;23;20175;-93
2024/01/29 08:27:36;;;;;;;4.00;2.13;;;7.10;99.90;;;;;;5007176;23;20176;-94
2024/01/29 08:29:38;;;;;;;5.07;1.97;;;7.30;99.90;;;;;;4986395;23;20164;-93
2024/01/29 08:31:39;;;;;;;5.83;1.97;;;7.60;99.90;;;;;;4982414;23;20156;-92
2024/01/29 08:33:42;;;;;;;3.10;1.57;;;7.70;99.90;;;;;;5004000;23;20243;-94
2024/01/29 08:35:47;;;;;;;2.90;1.53;;;8.10;99.90;;;;;;5031042;23;20162;-93
2024/01/29 08:37:48;;;;;;;4.20;1.73;;;8.20;99.90;;;;;;5009590;23;20628;-93
2024/01/29 08:39:49;;;;;;;3.10;1.53;;;8.10;99.90;;;;;;5009858;23;20208;-93
2024/01/29 08:41:50;;;;;;;5.20;2.05;;;8.30;99.90;;;;;;5009321;23;20144;-92
2024/01/29 08:43:51;;;;;;;4.20;2.28;;;8.10;99.90;;;;;;4978654;23;20161;-93
2024/01/29 08:45:54;;;;;;;4.13;2.05;;;8.30;99.90;;;;;;4985924;23;20666;-93
2024/01/29 08:47:55;;;;;;;8.83;2.13;;;8.20;99.90;;;;;;4985658;23;20164;-93
2024/01/29 08:49:56;;;;;;;2.53;1.87;;;8.20;99.90;;;;;;4960781;23;20524;-94
2024/01/29 08:51:57;;;;;;;4.18;2.15;;;8.10;99.90;;;;;;4984294;23;20136;-93
2024/01/29 08:53:58;;;;;;;4.07;2.05;;;8.30;99.90;;;;;;4981466;23;20156;-93
2024/01/29 08:55:59;;;;;;;3.30;1.83;;;8.30;99.90;;;;;;4984711;23;20223;-92
2024/01/29 08:58:00;;;;;;;4.10;2.30;;;8.30;99.90;;;;;;5010524;23;20151;-94
2024/01/29 09:00:04;;;;;;;3.63;1.67;;;8.10;99.90;;;;;;5007413;23;20196;-93
2024/01/29 09:02:08;;;;;;;7.25;2.33;;;8.00;99.90;;;;;;4983625;23;20178;-93
2024/01/29 09:04:08;;;;;;;6.13;1.92;;;8.00;99.90;;;;;;5007330;23;20156;-95
2024/01/29 09:06:09;;;;;;;6.72;2.40;;;7.80;99.90;;;;;;5004973;23;20146;-92
2024/01/29 09:08:10;;;;;;;3.67;1.57;;;7.80;99.90;;;;;;5005675;23;20135;-93
2024/01/29 09:10:11;;;;;;;4.47;1.83;;;7.90;99.90;;;;;;4982467;23;20152;-92
2024/01/29 09:12:12;;;;;;;6.68;2.38;;;7.90;99.90;;;;;;5007315;23;20156;-92
2024/01/29 09:14:13;;;;;;;5.22;2.35;;;7.90;99.90;;;;;;4979777;23;20650;-96
2024/01/29 09:16:14;;;;;;;4.17;1.67;;;8.00;99.90;;;;;;4975700;23;20260;-90
2024/01/29 09:18:14;;;;;;;5.00;2.10;;;8.10;99.90;;;;;;4975623;23;20156;-89
2024/01/29 09:20:16;;;;;;;7.03;2.10;;;8.30;99.90;;;;;;4974993;23;20196;-90
2024/01/29 09:22:18;;;;;;;4.20;1.77;;;8.50;99.90;;;;;;4999873;23;20239;-90
2024/01/29 09:24:19;;;;;;;7.85;3.20;;;8.70;99.90;;;;;;4975215;23;20180;-91
2024/01/29 09:26:20;;;;;;;5.47;2.30;;;9.00;99.90;;;;;;4999800;23;20227;-91
2024/01/29 09:28:20;;;;;;;4.93;2.03;;;9.20;99.90;;;;;;4977193;23;20184;-96
2024/01/29 09:30:21;;;;;;;10.30;2.97;;;9.30;99.90;;;;;;4977030;23;20187;-96
2024/01/29 09:32:22;;;;;;;6.25;2.47;;;9.50;99.90;;;;;;4979378;23;20148;-90
2024/01/29 09:34:24;;;;;;;5.13;2.38;;;9.70;99.90;;;;;;4977415;23;20160;-89
2024/01/29 09:36:25;;;;;;;4.97;2.17;;;9.50;99.90;;;;;;4978629;23;20171;-90
2024/01/29 09:38:26;;;;;;;4.97;2.35;;;9.40;99.90;;;;;;5008256;23;20171;-95
2024/01/29 09:40:27;;;;;;;5.45;2.03;;;9.40;99.90;;;;;;4983419;23;20531;-90
2024/01/29 09:42:31;;;;;;;3.17;1.73;;;9.50;99.90;;;;;;5008074;23;20163;-94
2024/01/29 09:44:38;;;;;;;7.55;1.98;;;9.50;99.90;;;;;;4983544;23;20168;-96
2024/01/29 09:46:40;;;;;;;2.45;1.38;;;9.50;99.90;;;;;;4983853;23;20188;-90
2024/01/29 09:48:41;;;;;;;3.97;2.28;;;9.50;99.90;;;;;;4977711;23;20204;-90
2024/01/29 09:50:46;;;;;;;3.38;2.13;;;9.40;99.90;;;;;;5001081;23;20159;-89
2024/01/29 09:52:49;;;;;;;6.47;2.28;;;9.40;99.90;;;;;;4978727;23;20152;-89
2024/01/29 09:54:51;;;;;;;10.02;2.08;;;9.30;99.90;;;;;;4977797;23;20153;-89
2024/01/29 09:56:52;;;;;;;5.93;2.63;;;9.30;99.90;;;;;;4977166;23;20234;-89
2024/01/29 09:58:53;;;;;;;4.72;1.90;;;9.20;99.90;;;;;;4953406;24;20169;-89
2024/01/29 10:00:56;;;;;;;4.82;2.63;;;9.20;99.90;;;;;;4976160;23;20301;-90
2024/01/29 10:03:05;;;;;;;5.82;2.13;;;9.60;99.90;;;;;;4976613;23;20193;-90
2024/01/29 10:05:11;;;;;;;3.88;2.13;;;9.60;99.90;;;;;;4953639;24;20472;-89
2024/01/29 10:07:12;;;;;;;3.97;2.33;;;9.60;99.90;;;;;;4977888;23;20211;-92
2024/01/29 10:09:14;;;;;;;6.28;2.63;;;9.60;99.90;;;;;;4978822;23;20156;-92
2024/01/29 10:11:18;;;;;;;5.68;2.60;;;9.60;99.90;;;;;;4976377;23;20239;-94
2024/01/29 10:13:18;;;;;;;7.50;2.78;;;9.60;99.90;;;;;;4976022;23;20148;-90
2024/01/29 10:15:19;;;;;;;5.05;2.75;;;9.70;99.90;;;;;;4976141;23;20152;-90
2024/01/29 10:17:20;;;;;;;6.28;2.40;;;9.80;99.90;;;;;;4954868;23;20259;-89
2024/01/29 10:19:21;;;;;;;5.15;2.45;;;9.90;99.90;;;;;;4953905;24;20283;-90
2024/01/29 10:21:22;;;;;;;8.10;2.53;;;9.90;99.90;;;;;;4976340;23;20257;-90
2024/01/29 10:23:23;;;;;;;6.00;2.40;;;9.90;99.90;;;;;;4978599;23;20171;-92
2024/01/29 10:25:23;;;;;;;5.28;2.63;;;10.00;99.90;;;;;;4999715;23;20276;-90
2024/01/29 10:27:24;;;;;;;7.63;3.20;;;10.10;99.90;;;;;;4953252;23;20169;-89
2024/01/29 10:29:25;;;;;;;3.97;1.90;;;10.10;99.90;;;;;;4976118;23;20158;-90
2024/01/29 10:31:26;;;;;;;6.03;2.50;;;10.20;99.90;;;;;;5000056;23;20156;-89
2024/01/29 10:33:26;;;;;;;5.35;2.47;;;10.20;99.90;;;;;;4979702;23;20152;-90
2024/01/29 10:35:27;;;;;;;6.05;3.65;;;10.20;99.90;;;;;;5000583;23;20207;-90
2024/01/29 10:37:28;;;;;;;6.63;2.97;;;10.20;99.90;;;;;;4975844;23;20205;-90
2024/01/29 10:39:31;;;;;;;8.57;4.15;;;10.30;99.90;;;;;;4977188;23;20244;-90
2024/01/29 10:41:32;;;;;;;8.98;3.72;;;10.40;99.90;;;;;;4977461;23;20152;-90